KPAE/PAE METAR and TAF weather

Enter ICAO airport designator
Station Type Date Time Source
KPAE METAR 2022/06/26 06:53 UTC NOAA

KPAE 260653Z AUTO 33004KT 10SM CLR 20/08 A3012 RMK AO2 SLP196 T02000083 $


Station Type Date Time Source
KPAE Decoded METAR 2022/06/26 06:53 UTC NOAA

EVERETT SNOHOMISH COUNTY, WA, United States (KPAE) 47-55N 122-17W 180M
Jun 26, 2022 - 02:53 AM EDT / 2022.06.26 0653 UTC
Wind: from the NNW (330 degrees) at 5 MPH (4 KT):0
Visibility: 10 mile(s):0
Sky conditions: clear
Temperature: 68.0 F (20.0 C)
Dew Point: 46.9 F (8.3 C)
Relative Humidity: 46%
Pressure (altimeter): 30.12 in. Hg (1019 hPa)
ob: KPAE 260653Z AUTO 33004KT 10SM CLR 20/08 A3012 RMK AO2 SLP196 T02000083
cycle: 7

Station Type Date Time Source
KPAE TAF 2022/06/26 06:22 UTC NOAA

TAF KPAE 260520Z 2606/2706 35006KT P6SM SKC

Example: see airport list